sensor_id;sensor_type;location;lat;lon;timestamp;temperature;humidity
18291;DHT22;9271;48.590;8.866;2023-02-01T00:02:00;5.30;99.90
18291;DHT22;9271;48.590;8.866;2023-02-01T00:04:27;5.00;99.90
18291;DHT22;9271;48.590;8.866;2023-02-01T00:06:54;4.60;99.90
18291;DHT22;9271;48.590;8.866;2023-02-01T00:09:20;4.80;99.90
18291;DHT22;9271;48.590;8.866;2023-02-01T00:11:47;4.90;99.90
18291;DHT22;9271;48.590;8.866;2023-02-01T00:14:15;4.90;99.90
18291;DHT22;9271;48.590;8.866;2023-02-01T00:16:42;5.00;99.90
18291;DHT22;9271;48.590;8.866;2023-02-01T00:19:12;4.90;99.90
18291;DHT22;9271;48.590;8.866;2023-02-01T00:21:39;5.00;99.90
18291;DHT22;9271;48.590;8.866;2023-02-01T00:24:06;5.10;99.90
18291;DHT22;9271;48.590;8.866;2023-02-01T00:26:35;5.10;99.90
18291;DHT22;9271;48.590;8.866;2023-02-01T00:29:05;4.90;99.90
18291;DHT22;9271;48.590;8.866;2023-02-01T00:31:33;4.80;99.90
18291;DHT22;9271;48.590;8.866;2023-02-01T00:34:00;5.00;99.90
18291;DHT22;9271;48.590;8.866;2023-02-01T00:36:27;5.00;99.90
18291;DHT22;9271;48.590;8.866;2023-02-01T00:38:54;5.00;99.90
18291;DHT22;9271;48.590;8.866;2023-02-01T00:41:21;5.20;99.90
18291;DHT22;9271;48.590;8.866;2023-02-01T00:43:49;5.00;99.90
18291;DHT22;9271;48.590;8.866;2023-02-01T00:46:17;5.00;99.90
18291;DHT22;9271;48.590;8.866;2023-02-01T00:48:45;5.00;99.90
18291;DHT22;9271;48.590;8.866;2023-02-01T00:51:13;4.80;99.90
18291;DHT22;9271;48.590;8.866;2023-02-01T00:53:41;4.90;99.90
18291;DHT22;9271;48.590;8.866;2023-02-01T00:56:08;4.90;99.90
18291;DHT22;9271;48.590;8.866;2023-02-01T00:58:35;5.00;99.90
18291;DHT22;9271;48.590;8.866;2023-02-01T01:01:04;4.50;99.90
18291;DHT22;9271;48.590;8.866;2023-02-01T01:03:32;4.50;99.90
18291;DHT22;9271;48.590;8.866;2023-02-01T01:06:02;4.50;99.90
18291;DHT22;9271;48.590;8.866;2023-02-01T01:08:28;4.40;99.90
18291;DHT22;9271;48.590;8.866;2023-02-01T01:10:55;4.40;99.90
18291;DHT22;9271;48.590;8.866;2023-02-01T01:13:22;4.40;99.90
18291;DHT22;9271;48.590;8.866;2023-02-01T01:15:48;4.30;99.90
18291;DHT22;9271;48.590;8.866;2023-02-01T01:18:15;4.40;99.90
18291;DHT22;9271;48.590;8.866;2023-02-01T01:20:42;4.20;99.90
18291;DHT22;9271;48.590;8.866;2023-02-01T01:23:10;4.20;99.90
18291;DHT22;9271;48.590;8.866;2023-02-01T01:25:37;4.60;99.90
18291;DHT22;9271;48.590;8.866;2023-02-01T01:28:05;4.90;99.90
18291;DHT22;9271;48.590;8.866;2023-02-01T01:30:33;5.00;99.90
18291;DHT22;9271;48.590;8.866;2023-02-01T01:32:59;5.10;99.90
18291;DHT22;9271;48.590;8.866;2023-02-01T01:35:28;5.20;99.90
18291;DHT22;9271;48.590;8.866;2023-02-01T01:37:55;5.20;99.90
18291;DHT22;9271;48.590;8.866;2023-02-01T01:40:23;5.10;99.90
18291;DHT22;9271;48.590;8.866;2023-02-01T01:42:50;4.90;99.90
18291;DHT22;9271;48.590;8.866;2023-02-01T01:45:23;4.70;99.90
18291;DHT22;9271;48.590;8.866;2023-02-01T01:47:53;4.40;99.90
18291;DHT22;9271;48.590;8.866;2023-02-01T01:50:24;4.30;99.90
18291;DHT22;9271;48.590;8.866;2023-02-01T01:52:54;4.00;99.90
18291;DHT22;9271;48.590;8.866;2023-02-01T01:55:24;4.00;99.90
18291;DHT22;9271;48.590;8.866;2023-02-01T01:57:55;4.40;99.90
18291;DHT22;9271;48.590;8.866;2023-02-01T02:00:23;4.50;99.90
18291;DHT22;9271;48.590;8.866;2023-02-01T02:02:54;4.60;99.90
18291;DHT22;9271;48.590;8.866;2023-02-01T02:05:23;4.60;99.90
18291;DHT22;9271;48.590;8.866;2023-02-01T02:07:52;4.80;99.90
18291;DHT22;9271;48.590;8.866;2023-02-01T02:10:20;5.30;99.90
18291;DHT22;9271;48.590;8.866;2023-02-01T02:13:08;5.10;99.90
18291;DHT22;9271;48.590;8.866;2023-02-01T02:15:37;5.30;99.90
18291;DHT22;9271;48.590;8.866;2023-02-01T02:18:12;5.30;99.90
18291;DHT22;9271;48.590;8.866;2023-02-01T02:20:53;5.50;99.90
18291;DHT22;9271;48.590;8.866;2023-02-01T02:26:45;5.60;99.90
18291;DHT22;9271;48.590;8.866;2023-02-01T02:29:34;5.50;99.90
18291;DHT22;9271;48.590;8.866;2023-02-01T02:35:02;5.70;99.90
18291;DHT22;9271;48.590;8.866;2023-02-01T02:37:36;5.70;99.90
18291;DHT22;9271;48.590;8.866;2023-02-01T02:40:10;5.70;99.90
18291;DHT22;9271;48.590;8.866;2023-02-01T02:42:46;5.70;99.90
18291;DHT22;9271;48.590;8.866;2023-02-01T02:45:40;5.70;99.90
18291;DHT22;9271;48.590;8.866;2023-02-01T02:48:28;5.70;99.90
18291;DHT22;9271;48.590;8.866;2023-02-01T02:51:01;5.60;99.90
18291;DHT22;9271;48.590;8.866;2023-02-01T02:53:53;5.60;99.90
18291;DHT22;9271;48.590;8.866;2023-02-01T02:56:40;5.40;99.90
18291;DHT22;9271;48.590;8.866;2023-02-01T02:59:26;5.50;99.90
18291;DHT22;9271;48.590;8.866;2023-02-01T03:02:11;5.30;99.90
18291;DHT22;9271;48.590;8.866;2023-02-01T03:04:56;5.50;99.90
18291;DHT22;9271;48.590;8.866;2023-02-01T03:08:02;5.50;99.90
18291;DHT22;9271;48.590;8.866;2023-02-01T03:10:37;5.30;99.90
18291;DHT22;9271;48.590;8.866;2023-02-01T03:13:09;5.50;99.90
18291;DHT22;9271;48.590;8.866;2023-02-01T03:15:40;5.40;99.90
18291;DHT22;9271;48.590;8.866;2023-02-01T03:18:13;5.60;99.90
18291;DHT22;9271;48.590;8.866;2023-02-01T03:20:45;5.70;99.90
18291;DHT22;9271;48.590;8.866;2023-02-01T03:23:16;5.60;99.90
18291;DHT22;9271;48.590;8.866;2023-02-01T03:25:47;5.50;99.90
18291;DHT22;9271;48.590;8.866;2023-02-01T03:28:15;5.40;99.90
18291;DHT22;9271;48.590;8.866;2023-02-01T03:30:48;5.60;99.90
18291;DHT22;9271;48.590;8.866;2023-02-01T03:33:18;5.70;99.90
18291;DHT22;9271;48.590;8.866;2023-02-01T03:35:54;5.70;99.90
18291;DHT22;9271;48.590;8.866;2023-02-01T03:38:27;5.90;99.90
18291;DHT22;9271;48.590;8.866;2023-02-01T03:41:00;5.70;99.90
18291;DHT22;9271;48.590;8.866;2023-02-01T03:43:34;5.50;99.90
18291;DHT22;9271;48.590;8.866;2023-02-01T03:46:09;5.50;99.90
18291;DHT22;9271;48.590;8.866;2023-02-01T03:48:39;5.70;99.90
18291;DHT22;9271;48.590;8.866;2023-02-01T03:51:07;5.50;99.90
18291;DHT22;9271;48.590;8.866;2023-02-01T03:53:40;5.20;99.90
18291;DHT22;9271;48.590;8.866;2023-02-01T03:56:08;5.30;99.90
18291;DHT22;9271;48.590;8.866;2023-02-01T03:58:37;5.20;99.90
18291;DHT22;9271;48.590;8.866;2023-02-01T04:01:03;5.30;99.90
18291;DHT22;9271;48.590;8.866;2023-02-01T04:03:30;5.20;99.90
18291;DHT22;9271;48.590;8.866;2023-02-01T04:05:57;5.20;99.90
18291;DHT22;9271;48.590;8.866;2023-02-01T04:08:24;5.00;99.90
18291;DHT22;9271;48.590;8.866;2023-02-01T04:10:52;5.00;99.90
18291;DHT22;9271;48.590;8.866;2023-02-01T04:13:18;5.00;99.90
18291;DHT22;9271;48.590;8.866;2023-02-01T04:15:46;4.80;99.90
18291;DHT22;9271;48.590;8.866;2023-02-01T04:18:15;4.80;99.90
18291;DHT22;9271;48.590;8.866;2023-02-01T04:20:42;4.90;99.90
18291;DHT22;9271;48.590;8.866;2023-02-01T04:23:09;5.10;99.90
18291;DHT22;9271;48.590;8.866;2023-02-01T04:25:36;5.30;99.90
18291;DHT22;9271;48.590;8.866;2023-02-01T04:28:04;5.30;99.90
18291;DHT22;9271;48.590;8.866;2023-02-01T04:30:32;5.10;99.90
18291;DHT22;9271;48.590;8.866;2023-02-01T04:32:58;5.10;99.90
18291;DHT22;9271;48.590;8.866;2023-02-01T04:35:25;5.20;99.90
18291;DHT22;9271;48.590;8.866;2023-02-01T04:37:52;5.20;99.90
18291;DHT22;9271;48.590;8.866;2023-02-01T04:40:18;5.20;99.90
18291;DHT22;9271;48.590;8.866;2023-02-01T04:42:45;5.30;99.90
18291;DHT22;9271;48.590;8.866;2023-02-01T04:45:13;5.10;99.90
18291;DHT22;9271;48.590;8.866;2023-02-01T04:47:40;4.70;99.90
18291;DHT22;9271;48.590;8.866;2023-02-01T04:50:07;4.70;99.90
18291;DHT22;9271;48.590;8.866;2023-02-01T04:52:36;4.80;99.90
18291;DHT22;9271;48.590;8.866;2023-02-01T04:55:03;4.40;99.90
18291;DHT22;9271;48.590;8.866;2023-02-01T04:57:30;4.60;99.90
18291;DHT22;9271;48.590;8.866;2023-02-01T04:59:56;4.80;99.90
18291;DHT22;9271;48.590;8.866;2023-02-01T05:02:24;4.90;99.90
18291;DHT22;9271;48.590;8.866;2023-02-01T05:04:51;4.80;99.90
18291;DHT22;9271;48.590;8.866;2023-02-01T05:07:18;4.70;99.90
18291;DHT22;9271;48.590;8.866;2023-02-01T05:09:44;4.80;99.90
18291;DHT22;9271;48.590;8.866;2023-02-01T05:12:11;4.70;99.90
18291;DHT22;9271;48.590;8.866;2023-02-01T05:14:56;4.60;99.90
18291;DHT22;9271;48.590;8.866;2023-02-01T05:17:22;4.60;99.90
18291;DHT22;9271;48.590;8.866;2023-02-01T05:19:50;4.60;99.90
18291;DHT22;9271;48.590;8.866;2023-02-01T05:22:17;4.60;99.90
18291;DHT22;9271;48.590;8.866;2023-02-01T05:24:44;4.60;99.90
18291;DHT22;9271;48.590;8.866;2023-02-01T05:27:11;4.50;99.90
18291;DHT22;9271;48.590;8.866;2023-02-01T05:29:38;4.60;99.90
18291;DHT22;9271;48.590;8.866;2023-02-01T05:32:05;4.60;99.90
18291;DHT22;9271;48.590;8.866;2023-02-01T05:34:31;4.60;99.90
18291;DHT22;9271;48.590;8.866;2023-02-01T05:37:00;4.70;99.90
18291;DHT22;9271;48.590;8.866;2023-02-01T05:39:26;4.90;99.90
18291;DHT22;9271;48.590;8.866;2023-02-01T05:41:53;4.90;99.90
18291;DHT22;9271;48.590;8.866;2023-02-01T05:44:20;4.80;99.90
18291;DHT22;9271;48.590;8.866;2023-02-01T05:46:47;4.70;99.90
18291;DHT22;9271;48.590;8.866;2023-02-01T05:49:13;4.80;99.90
18291;DHT22;9271;48.590;8.866;2023-02-01T05:51:40;4.90;99.90
18291;DHT22;9271;48.590;8.866;2023-02-01T05:54:10;4.90;99.90
18291;DHT22;9271;48.590;8.866;2023-02-01T05:56:36;4.70;99.90
18291;DHT22;9271;48.590;8.866;2023-02-01T05:59:03;4.50;99.90
18291;DHT22;9271;48.590;8.866;2023-02-01T06:01:30;4.50;99.90
18291;DHT22;9271;48.590;8.866;2023-02-01T06:03:57;4.70;99.90
18291;DHT22;9271;48.590;8.866;2023-02-01T06:06:24;4.70;99.90
18291;DHT22;9271;48.590;8.866;2023-02-01T06:08:51;4.90;99.90
18291;DHT22;9271;48.590;8.866;2023-02-01T06:11:19;5.00;99.90
18291;DHT22;9271;48.590;8.866;2023-02-01T06:13:46;5.20;99.90
18291;DHT22;9271;48.590;8.866;2023-02-01T06:16:13;5.30;99.90
18291;DHT22;9271;48.590;8.866;2023-02-01T06:18:41;5.10;99.90
18291;DHT22;9271;48.590;8.866;2023-02-01T06:21:08;5.10;99.90
18291;DHT22;9271;48.590;8.866;2023-02-01T06:23:35;4.80;99.90
18291;DHT22;9271;48.590;8.866;2023-02-01T06:26:03;4.90;99.90
18291;DHT22;9271;48.590;8.866;2023-02-01T06:28:32;4.70;99.90
18291;DHT22;9271;48.590;8.866;2023-02-01T06:31:08;4.90;99.90
18291;DHT22;9271;48.590;8.866;2023-02-01T06:33:36;5.20;99.90
18291;DHT22;9271;48.590;8.866;2023-02-01T06:36:05;5.20;99.90
18291;DHT22;9271;48.590;8.866;2023-02-01T06:38:32;5.00;99.90
18291;DHT22;9271;48.590;8.866;2023-02-01T06:41:00;5.10;99.90
18291;DHT22;9271;48.590;8.866;2023-02-01T06:43:27;4.90;99.90
18291;DHT22;9271;48.590;8.866;2023-02-01T06:46:01;4.80;99.90
18291;DHT22;9271;48.590;8.866;2023-02-01T06:48:29;4.60;99.90
18291;DHT22;9271;48.590;8.866;2023-02-01T06:50:56;4.60;99.90
18291;DHT22;9271;48.590;8.866;2023-02-01T06:53:23;4.60;99.90
18291;DHT22;9271;48.590;8.866;2023-02-01T06:55:54;4.50;99.90
18291;DHT22;9271;48.590;8.866;2023-02-01T06:58:21;4.90;99.90
18291;DHT22;9271;48.590;8.866;2023-02-01T07:00:48;4.90;99.90
18291;DHT22;9271;48.590;8.866;2023-02-01T07:03:17;4.70;99.90
18291;DHT22;9271;48.590;8.866;2023-02-01T07:05:44;4.90;99.90
18291;DHT22;9271;48.590;8.866;2023-02-01T07:08:10;5.10;99.90
18291;DHT22;9271;48.590;8.866;2023-02-01T07:11:03;5.40;99.90
18291;DHT22;9271;48.590;8.866;2023-02-01T07:13:30;5.50;99.90
18291;DHT22;9271;48.590;8.866;2023-02-01T07:15:58;5.30;99.90
18291;DHT22;9271;48.590;8.866;2023-02-01T07:18:26;4.90;99.90
18291;DHT22;9271;48.590;8.866;2023-02-01T07:20:52;5.00;99.90
18291;DHT22;9271;48.590;8.866;2023-02-01T07:23:19;4.90;99.90
18291;DHT22;9271;48.590;8.866;2023-02-01T07:25:46;4.80;99.90
18291;DHT22;9271;48.590;8.866;2023-02-01T07:28:14;4.90;99.90
18291;DHT22;9271;48.590;8.866;2023-02-01T07:30:41;5.10;99.90
18291;DHT22;9271;48.590;8.866;2023-02-01T07:33:07;5.20;99.90
18291;DHT22;9271;48.590;8.866;2023-02-01T07:35:34;5.30;99.90
18291;DHT22;9271;48.590;8.866;2023-02-01T07:38:01;5.40;99.90
18291;DHT22;9271;48.590;8.866;2023-02-01T07:40:27;5.40;99.90
18291;DHT22;9271;48.590;8.866;2023-02-01T07:42:55;5.10;99.90
18291;DHT22;9271;48.590;8.866;2023-02-01T07:45:24;5.10;99.90
18291;DHT22;9271;48.590;8.866;2023-02-01T07:47:52;5.00;99.90
18291;DHT22;9271;48.590;8.866;2023-02-01T07:50:19;5.10;99.90
18291;DHT22;9271;48.590;8.866;2023-02-01T07:52:46;5.20;99.90
18291;DHT22;9271;48.590;8.866;2023-02-01T07:55:12;5.10;99.90
18291;DHT22;9271;48.590;8.866;2023-02-01T07:57:39;5.20;99.90
18291;DHT22;9271;48.590;8.866;2023-02-01T08:00:07;5.20;99.90
18291;DHT22;9271;48.590;8.866;2023-02-01T08:02:53;5.30;99.90
18291;DHT22;9271;48.590;8.866;2023-02-01T08:05:19;5.40;99.90
18291;DHT22;9271;48.590;8.866;2023-02-01T08:07:48;5.60;99.90
18291;DHT22;9271;48.590;8.866;2023-02-01T08:10:15;5.60;99.90
18291;DHT22;9271;48.590;8.866;2023-02-01T08:12:42;5.70;99.90
18291;DHT22;9271;48.590;8.866;2023-02-01T08:15:13;6.20;99.90
18291;DHT22;9271;48.590;8.866;2023-02-01T08:17:40;6.60;99.90
18291;DHT22;9271;48.590;8.866;2023-02-01T08:20:09;6.50;99.90
18291;DHT22;9271;48.590;8.866;2023-02-01T08:22:37;6.60;99.90
18291;DHT22;9271;48.590;8.866;2023-02-01T08:25:04;6.50;99.90
18291;DHT22;9271;48.590;8.866;2023-02-01T08:27:32;6.50;99.90
18291;DHT22;9271;48.590;8.866;2023-02-01T08:29:59;6.50;99.90
18291;DHT22;9271;48.590;8.866;2023-02-01T08:32:26;6.40;99.90
18291;DHT22;9271;48.590;8.866;2023-02-01T08:34:52;6.50;99.90
18291;DHT22;9271;48.590;8.866;2023-02-01T08:37:20;7.00;99.90
18291;DHT22;9271;48.590;8.866;2023-02-01T08:39:47;6.70;99.90
18291;DHT22;9271;48.590;8.866;2023-02-01T08:42:16;6.50;99.90
18291;DHT22;9271;48.590;8.866;2023-02-01T08:45:01;6.40;99.90
18291;DHT22;9271;48.590;8.866;2023-02-01T08:47:28;6.40;99.90
18291;DHT22;9271;48.590;8.866;2023-02-01T08:49:55;6.40;99.90
18291;DHT22;9271;48.590;8.866;2023-02-01T08:52:23;6.50;99.90
18291;DHT22;9271;48.590;8.866;2023-02-01T08:54:49;6.10;99.90
18291;DHT22;9271;48.590;8.866;2023-02-01T08:57:16;6.20;99.90
18291;DHT22;9271;48.590;8.866;2023-02-01T08:59:43;6.20;99.90
18291;DHT22;9271;48.590;8.866;2023-02-01T09:02:12;5.90;99.90
18291;DHT22;9271;48.590;8.866;2023-02-01T09:04:40;6.00;99.90
18291;DHT22;9271;48.590;8.866;2023-02-01T09:07:06;6.00;99.90
18291;DHT22;9271;48.590;8.866;2023-02-01T09:09:34;6.20;99.90
18291;DHT22;9271;48.590;8.866;2023-02-01T09:12:02;6.30;99.90
18291;DHT22;9271;48.590;8.866;2023-02-01T09:14:29;6.30;99.90
18291;DHT22;9271;48.590;8.866;2023-02-01T09:16:56;6.40;99.90
18291;DHT22;9271;48.590;8.866;2023-02-01T09:19:22;6.50;99.90
18291;DHT22;9271;48.590;8.866;2023-02-01T09:21:49;6.70;99.90
18291;DHT22;9271;48.590;8.866;2023-02-01T09:24:16;6.60;99.90
18291;DHT22;9271;48.590;8.866;2023-02-01T09:26:44;6.30;99.90
18291;DHT22;9271;48.590;8.866;2023-02-01T09:29:11;6.10;99.90
18291;DHT22;9271;48.590;8.866;2023-02-01T09:31:38;6.60;99.90
18291;DHT22;9271;48.590;8.866;2023-02-01T09:34:05;6.50;99.90
18291;DHT22;9271;48.590;8.866;2023-02-01T09:36:32;6.40;99.90
18291;DHT22;9271;48.590;8.866;2023-02-01T09:39:00;6.50;99.90
18291;DHT22;9271;48.590;8.866;2023-02-01T09:41:35;6.50;99.90
18291;DHT22;9271;48.590;8.866;2023-02-01T09:44:12;6.90;99.90
18291;DHT22;9271;48.590;8.866;2023-02-01T09:46:41;7.20;99.90
18291;DHT22;9271;48.590;8.866;2023-02-01T09:49:12;7.10;99.40
18291;DHT22;9271;48.590;8.866;2023-02-01T09:51:43;7.20;99.90
18291;DHT22;9271;48.590;8.866;2023-02-01T09:54:16;7.50;99.60
18291;DHT22;9271;48.590;8.866;2023-02-01T09:56:47;7.40;99.00
18291;DHT22;9271;48.590;8.866;2023-02-01T09:59:24;7.40;99.50
18291;DHT22;9271;48.590;8.866;2023-02-01T10:01:53;7.30;99.10
18291;DHT22;9271;48.590;8.866;2023-02-01T10:04:20;7.00;99.90
18291;DHT22;9271;48.590;8.866;2023-02-01T10:06:56;7.10;99.40
18291;DHT22;9271;48.590;8.866;2023-02-01T10:09:42;6.80;99.70
18291;DHT22;9271;48.590;8.866;2023-02-01T10:12:39;6.60;99.90
18291;DHT22;9271;48.590;8.866;2023-02-01T10:15:24;6.70;99.90
18291;DHT22;9271;48.590;8.866;2023-02-01T10:18:07;7.20;99.30
18291;DHT22;9271;48.590;8.866;2023-02-01T10:20:46;7.30;99.10
18291;DHT22;9271;48.590;8.866;2023-02-01T10:26:18;8.20;97.60
18291;DHT22;9271;48.590;8.866;2023-02-01T10:28:48;7.90;97.60
18291;DHT22;9271;48.590;8.866;2023-02-01T10:31:18;8.10;96.70
18291;DHT22;9271;48.590;8.866;2023-02-01T10:33:47;7.50;97.70
18291;DHT22;9271;48.590;8.866;2023-02-01T10:36:16;7.20;98.00
18291;DHT22;9271;48.590;8.866;2023-02-01T10:38:46;6.90;98.30
18291;DHT22;9271;48.590;8.866;2023-02-01T10:41:15;7.10;98.20
18291;DHT22;9271;48.590;8.866;2023-02-01T10:43:43;7.00;98.10
18291;DHT22;9271;48.590;8.866;2023-02-01T10:46:10;7.00;98.30
18291;DHT22;9271;48.590;8.866;2023-02-01T10:48:38;7.10;98.10
18291;DHT22;9271;48.590;8.866;2023-02-01T10:51:10;7.30;98.10
18291;DHT22;9271;48.590;8.866;2023-02-01T10:53:44;7.50;97.60
18291;DHT22;9271;48.590;8.866;2023-02-01T10:56:13;7.50;97.50
18291;DHT22;9271;48.590;8.866;2023-02-01T10:58:44;7.10;97.90
18291;DHT22;9271;48.590;8.866;2023-02-01T11:01:16;7.30;98.40
18291;DHT22;9271;48.590;8.866;2023-02-01T11:03:52;7.40;97.40
18291;DHT22;9271;48.590;8.866;2023-02-01T11:06:26;7.30;97.50
18291;DHT22;9271;48.590;8.866;2023-02-01T11:08:55;7.60;97.70
18291;DHT22;9271;48.590;8.866;2023-02-01T11:11:24;7.70;97.40
18291;DHT22;9271;48.590;8.866;2023-02-01T11:13:56;7.60;97.20
18291;DHT22;9271;48.590;8.866;2023-02-01T11:16:32;7.30;97.80
18291;DHT22;9271;48.590;8.866;2023-02-01T11:19:01;7.30;97.70
18291;DHT22;9271;48.590;8.866;2023-02-01T11:21:27;7.20;97.80
18291;DHT22;9271;48.590;8.866;2023-02-01T11:23:54;7.30;98.00
18291;DHT22;9271;48.590;8.866;2023-02-01T11:26:22;7.20;97.50
18291;DHT22;9271;48.590;8.866;2023-02-01T11:28:56;6.90;97.90
18291;DHT22;9271;48.590;8.866;2023-02-01T11:31:25;7.20;97.30
18291;DHT22;9271;48.590;8.866;2023-02-01T11:33:55;7.40;97.30
18291;DHT22;9271;48.590;8.866;2023-02-01T11:36:28;7.40;97.30
18291;DHT22;9271;48.590;8.866;2023-02-01T11:39:09;7.70;97.20
18291;DHT22;9271;48.590;8.866;2023-02-01T11:41:41;7.90;96.80
18291;DHT22;9271;48.590;8.866;2023-02-01T11:44:20;7.30;97.20
18291;DHT22;9271;48.590;8.866;2023-02-01T11:46:47;7.40;96.40
18291;DHT22;9271;48.590;8.866;2023-02-01T11:49:20;7.90;96.40
18291;DHT22;9271;48.590;8.866;2023-02-01T11:51:56;8.40;94.60
18291;DHT22;9271;48.590;8.866;2023-02-01T11:54:40;8.30;94.70
18291;DHT22;9271;48.590;8.866;2023-02-01T11:57:22;8.20;94.90
18291;DHT22;9271;48.590;8.866;2023-02-01T12:00:05;8.10;94.70
18291;DHT22;9271;48.590;8.866;2023-02-01T12:05:52;7.80;95.00
18291;DHT22;9271;48.590;8.866;2023-02-01T12:08:40;7.50;95.80
18291;DHT22;9271;48.590;8.866;2023-02-01T12:11:33;7.40;95.30
18291;DHT22;9271;48.590;8.866;2023-02-01T12:14:18;7.20;95.50
18291;DHT22;9271;48.590;8.866;2023-02-01T12:16:59;6.90;95.60
18291;DHT22;9271;48.590;8.866;2023-02-01T12:19:37;7.20;95.80
18291;DHT22;9271;48.590;8.866;2023-02-01T12:22:20;7.40;95.10
18291;DHT22;9271;48.590;8.866;2023-02-01T12:25:16;7.20;95.40
18291;DHT22;9271;48.590;8.866;2023-02-01T12:33:43;7.10;95.90
18291;DHT22;9271;48.590;8.866;2023-02-01T12:36:20;6.80;96.50
18291;DHT22;9271;48.590;8.866;2023-02-01T12:38:54;7.00;96.40
18291;DHT22;9271;48.590;8.866;2023-02-01T12:41:34;7.40;95.80
18291;DHT22;9271;48.590;8.866;2023-02-01T12:44:04;7.20;95.50
18291;DHT22;9271;48.590;8.866;2023-02-01T12:46:40;7.00;96.30
18291;DHT22;9271;48.590;8.866;2023-02-01T12:49:12;7.10;96.20
18291;DHT22;9271;48.590;8.866;2023-02-01T12:51:44;6.80;96.30
18291;DHT22;9271;48.590;8.866;2023-02-01T12:54:17;6.70;96.90
18291;DHT22;9271;48.590;8.866;2023-02-01T12:56:49;6.70;96.60
18291;DHT22;9271;48.590;8.866;2023-02-01T12:59:21;6.70;96.80
18291;DHT22;9271;48.590;8.866;2023-02-01T13:01:53;6.60;97.20
18291;DHT22;9271;48.590;8.866;2023-02-01T13:04:26;6.60;97.50
18291;DHT22;9271;48.590;8.866;2023-02-01T13:06:57;6.50;97.40
18291;DHT22;9271;48.590;8.866;2023-02-01T13:09:28;6.40;97.80
18291;DHT22;9271;48.590;8.866;2023-02-01T13:12:04;6.70;97.70
18291;DHT22;9271;48.590;8.866;2023-02-01T13:14:36;6.50;98.00
18291;DHT22;9271;48.590;8.866;2023-02-01T13:17:08;6.90;98.00
18291;DHT22;9271;48.590;8.866;2023-02-01T13:19:42;6.80;97.70
18291;DHT22;9271;48.590;8.866;2023-02-01T13:22:13;6.60;97.80
18291;DHT22;9271;48.590;8.866;2023-02-01T13:24:43;6.70;98.20
18291;DHT22;9271;48.590;8.866;2023-02-01T13:27:13;6.60;98.20
18291;DHT22;9271;48.590;8.866;2023-02-01T13:29:47;6.90;98.30
18291;DHT22;9271;48.590;8.866;2023-02-01T13:38:14;6.90;97.90
18291;DHT22;9271;48.590;8.866;2023-02-01T13:40:47;6.70;98.50
18291;DHT22;9271;48.590;8.866;2023-02-01T13:43:22;6.80;98.50
18291;DHT22;9271;48.590;8.866;2023-02-01T13:45:50;7.30;97.40
18291;DHT22;9271;48.590;8.866;2023-02-01T13:48:21;7.30;97.00
18291;DHT22;9271;48.590;8.866;2023-02-01T13:50:52;6.90;97.90
18291;DHT22;9271;48.590;8.866;2023-02-01T13:53:23;6.60;98.50
18291;DHT22;9271;48.590;8.866;2023-02-01T13:55:57;6.50;98.40
18291;DHT22;9271;48.590;8.866;2023-02-01T13:58:32;6.40;98.40
18291;DHT22;9271;48.590;8.866;2023-02-01T14:01:33;6.40;98.50
18291;DHT22;9271;48.590;8.866;2023-02-01T14:04:03;6.50;98.50
18291;DHT22;9271;48.590;8.866;2023-02-01T14:06:38;6.60;98.50
18291;DHT22;9271;48.590;8.866;2023-02-01T14:09:32;6.70;98.30
18291;DHT22;9271;48.590;8.866;2023-02-01T14:15:24;7.00;97.90
18291;DHT22;9271;48.590;8.866;2023-02-01T14:17:51;6.90;98.10
18291;DHT22;9271;48.590;8.866;2023-02-01T14:20:48;6.70;97.80
18291;DHT22;9271;48.590;8.866;2023-02-01T14:23:24;6.70;98.20
18291;DHT22;9271;48.590;8.866;2023-02-01T14:26:18;7.20;97.80
18291;DHT22;9271;48.590;8.866;2023-02-01T14:28:51;7.40;97.20
18291;DHT22;9271;48.590;8.866;2023-02-01T14:31:46;7.50;97.00
18291;DHT22;9271;48.590;8.866;2023-02-01T14:34:21;7.40;96.60
18291;DHT22;9271;48.590;8.866;2023-02-01T14:36:56;7.20;96.80
18291;DHT22;9271;48.590;8.866;2023-02-01T14:39:27;7.10;97.10
18291;DHT22;9271;48.590;8.866;2023-02-01T14:41:58;7.10;97.00
18291;DHT22;9271;48.590;8.866;2023-02-01T14:44:35;6.70;97.60
18291;DHT22;9271;48.590;8.866;2023-02-01T14:49:50;7.50;96.70
18291;DHT22;9271;48.590;8.866;2023-02-01T14:52:20;7.40;97.10
18291;DHT22;9271;48.590;8.866;2023-02-01T14:54:52;7.00;97.40
18291;DHT22;9271;48.590;8.866;2023-02-01T14:57:23;7.10;97.40
18291;DHT22;9271;48.590;8.866;2023-02-01T14:59:57;7.30;97.00
18291;DHT22;9271;48.590;8.866;2023-02-01T15:02:27;6.80;97.70
18291;DHT22;9271;48.590;8.866;2023-02-01T15:04:55;6.90;97.70
18291;DHT22;9271;48.590;8.866;2023-02-01T15:07:23;6.90;97.60
18291;DHT22;9271;48.590;8.866;2023-02-01T15:09:52;6.90;97.80
18291;DHT22;9271;48.590;8.866;2023-02-01T15:12:23;7.00;97.70
18291;DHT22;9271;48.590;8.866;2023-02-01T15:15:11;6.90;97.90
18291;DHT22;9271;48.590;8.866;2023-02-01T15:17:40;6.50;98.20
18291;DHT22;9271;48.590;8.866;2023-02-01T15:20:14;6.60;98.20
18291;DHT22;9271;48.590;8.866;2023-02-01T15:22:41;6.70;98.30
18291;DHT22;9271;48.590;8.866;2023-02-01T15:25:18;6.80;98.20
18291;DHT22;9271;48.590;8.866;2023-02-01T15:27:45;6.90;97.90
18291;DHT22;9271;48.590;8.866;2023-02-01T15:30:17;7.10;97.50
18291;DHT22;9271;48.590;8.866;2023-02-01T15:32:47;7.10;97.60
18291;DHT22;9271;48.590;8.866;2023-02-01T15:35:33;7.00;97.90
18291;DHT22;9271;48.590;8.866;2023-02-01T15:38:20;6.80;97.90
18291;DHT22;9271;48.590;8.866;2023-02-01T15:40:54;7.10;97.70
18291;DHT22;9271;48.590;8.866;2023-02-01T15:43:22;7.30;97.40
18291;DHT22;9271;48.590;8.866;2023-02-01T15:45:48;7.30;97.20
18291;DHT22;9271;48.590;8.866;2023-02-01T15:48:21;6.90;97.60
18291;DHT22;9271;48.590;8.866;2023-02-01T15:50:49;6.90;97.90
18291;DHT22;9271;48.590;8.866;2023-02-01T15:53:19;6.90;97.90
18291;DHT22;9271;48.590;8.866;2023-02-01T15:55:47;6.90;97.90
18291;DHT22;9271;48.590;8.866;2023-02-01T15:58:20;6.80;97.90
18291;DHT22;9271;48.590;8.866;2023-02-01T16:00:48;6.80;97.90
18291;DHT22;9271;48.590;8.866;2023-02-01T16:03:27;6.40;98.40
18291;DHT22;9271;48.590;8.866;2023-02-01T16:05:56;6.60;98.40
18291;DHT22;9271;48.590;8.866;2023-02-01T16:08:26;6.60;97.80
18291;DHT22;9271;48.590;8.866;2023-02-01T16:10:59;6.60;97.80
18291;DHT22;9271;48.590;8.866;2023-02-01T16:13:26;6.50;97.90
18291;DHT22;9271;48.590;8.866;2023-02-01T16:15:53;6.20;98.10
18291;DHT22;9271;48.590;8.866;2023-02-01T16:18:19;6.20;98.00
18291;DHT22;9271;48.590;8.866;2023-02-01T16:20:48;6.20;98.20
18291;DHT22;9271;48.590;8.866;2023-02-01T16:23:14;6.10;98.20
18291;DHT22;9271;48.590;8.866;2023-02-01T16:25:41;6.00;98.50
18291;DHT22;9271;48.590;8.866;2023-02-01T16:28:08;6.20;98.10
18291;DHT22;9271;48.590;8.866;2023-02-01T16:30:35;6.00;98.20
18291;DHT22;9271;48.590;8.866;2023-02-01T16:33:02;6.20;98.30
18291;DHT22;9271;48.590;8.866;2023-02-01T16:35:32;6.00;98.20
18291;DHT22;9271;48.590;8.866;2023-02-01T16:38:02;5.90;98.50
18291;DHT22;9271;48.590;8.866;2023-02-01T16:40:34;5.70;98.80
18291;DHT22;9271;48.590;8.866;2023-02-01T16:43:00;5.80;98.70
18291;DHT22;9271;48.590;8.866;2023-02-01T16:45:28;5.80;98.80
18291;DHT22;9271;48.590;8.866;2023-02-01T16:47:57;5.60;99.00
18291;DHT22;9271;48.590;8.866;2023-02-01T16:50:25;5.50;99.30
18291;DHT22;9271;48.590;8.866;2023-02-01T16:52:53;5.60;99.10
18291;DHT22;9271;48.590;8.866;2023-02-01T16:55:21;5.50;99.20
18291;DHT22;9271;48.590;8.866;2023-02-01T16:57:48;5.60;99.20